< < Back
Terminal Aerodrome Forecast


Current Version              Previous Versions:   1  2  3  4  5  6  7  8  9  

Terminal Aerodrome Forecast

235
FTUS44 KOHX 280500
TAFBNA
TAF
KBNA 280522Z 2806/2906 12005KT P6SM SCT050=

Latest METAR

755
SAUS70 KWBC 280900 RRS
MTRBNA
METAR KBNA 280853Z 00000KT 8SM CLR 23/22 A3003 RMK AO2 SLP163 T02280217
55002


USA.gov is the U.S. government's official web portal to all federal, state and local government web resources and services.